Time;durP1;ratioP1;P1;durP2;ratioP2;P2;SDS_P1;SDS_P2;PMS_P1;PMS_P2;Temp;Humidity;BMP_temperature;BMP_pressure;BME280_temperature;BME280_humidity;BME280_pressure;Samples;Min_cycle;Max_cycle;Signal;HPM_P1;HPM_P2
2022/02/05 00:00:35;;;;;;;2.33;1.00;;;;;;;1.21;82.46;95740.09;5013937;28;20209;-80
2022/02/05 00:05:52;;;;;;;5.40;1.20;;;;;;;1.03;83.31;95751.34;5030591;28;20186;-81
2022/02/05 00:08:44;;;;;;;1.93;1.00;;;;;;;0.98;82.19;95758.47;5016081;28;20209;-80
2022/02/05 00:11:52;;;;;;;3.37;1.33;;;;;;;0.98;82.78;95761.84;5030217;28;20243;-79
2022/02/05 00:15:17;;;;;;;2.07;1.40;;;;;;;0.92;82.54;95766.47;5031039;28;20178;-80
2022/02/05 00:41:49;;;;;;;3.30;0.93;;;;;;;0.95;83.02;95790.13;5032805;28;20185;-79
2022/02/05 00:44:14;;;;;;;3.70;1.07;;;;;;;0.92;82.79;95808.19;5019786;28;20190;-79
2022/02/05 00:46:41;;;;;;;2.70;1.10;;;;;;;0.92;83.80;95802.25;5034376;28;20174;-80
2022/02/05 00:49:07;;;;;;;3.97;1.30;;;;;;;0.96;85.30;95804.56;5033212;28;20203;-80
2022/02/05 00:51:39;;;;;;;2.40;0.90;;;;;;;0.94;84.59;95803.81;5015925;28;20194;-80
2022/02/05 00:54:10;;;;;;;2.47;1.10;;;;;;;0.98;84.60;95805.31;5017627;28;20644;-81
2022/02/05 00:59:10;;;;;;;6.53;1.10;;;;;;;0.95;85.70;95812.31;5035451;28;20312;-81
2022/02/05 01:01:35;;;;;;;2.47;1.37;;;;;;;0.92;84.68;95817.59;5032802;28;20670;-80
2022/02/05 01:04:00;;;;;;;5.10;2.13;;;;;;;0.82;85.38;95817.28;5033958;28;20696;-81
2022/02/05 01:06:26;;;;;;;2.80;1.53;;;;;;;0.78;85.70;95819.16;5033105;28;20189;-81
2022/02/05 01:08:51;;;;;;;3.00;1.33;;;;;;;0.84;85.71;95826.50;5033026;28;20264;-80
2022/02/05 01:11:17;;;;;;;5.73;1.50;;;;;;;0.80;86.52;95827.59;5032330;28;20275;-80
2022/02/05 01:13:42;;;;;;;2.67;1.30;;;;;;;0.82;85.38;95832.63;5032666;28;20240;-79
2022/02/05 01:16:25;;;;;;;4.77;1.33;;;;;;;0.65;85.16;95823.28;5033057;28;20789;-80
2022/02/05 01:18:51;;;;;;;5.03;1.37;;;;;;;0.64;85.34;95833.59;5018644;28;20249;-80
2022/02/05 01:21:34;;;;;;;2.00;1.30;;;;;;;0.65;85.67;95842.91;5015150;28;20621;-80
2022/02/05 01:24:04;;;;;;;4.57;1.60;;;;;;;0.52;85.67;95838.41;5018620;28;20528;-80
2022/02/05 01:26:38;;;;;;;2.33;1.77;;;;;;;0.46;85.55;95843.88;5016457;28;20272;-79
2022/02/05 01:29:22;;;;;;;2.20;1.33;;;;;;;0.47;85.92;95847.25;5033459;28;20691;-79
2022/02/05 01:31:53;;;;;;;2.93;1.50;;;;;;;0.44;84.99;95844.81;5017579;28;20666;-79
2022/02/05 01:34:47;;;;;;;4.37;1.60;;;;;;;0.47;85.71;95847.25;5019749;28;20311;-80
2022/02/05 02:11:32;;;;;;;5.50;2.90;;;;;;;-0.22;90.44;95862.63;5011605;28;20297;-80
2022/02/05 02:14:33;;;;;;;5.90;2.93;;;;;;;-0.18;90.22;95861.56;5013756;28;20214;-80
2022/02/05 02:17:29;;;;;;;3.93;2.70;;;;;;;-0.19;90.58;95855.66;5026754;28;20667;-80
2022/02/05 02:22:57;;;;;;;6.43;3.10;;;;;;;-0.19;91.08;95870.13;5018308;28;20181;-79
2022/02/05 02:30:20;;;;;;;6.43;3.00;;;;;;;-0.31;91.59;95858.81;5030162;28;20735;-79
2022/02/05 02:32:50;;;;;;;5.53;3.10;;;;;;;-0.41;91.81;95863.53;4997749;28;20186;-79
2022/02/05 02:35:21;;;;;;;6.00;3.07;;;;;;;-0.38;91.78;95858.25;5014805;28;20185;-80
2022/02/05 02:37:54;;;;;;;4.03;3.00;;;;;;;-0.33;91.57;95860.59;5014840;28;20185;-80
2022/02/05 02:40:29;;;;;;;8.20;3.20;;;;;;;-0.35;91.13;95865.78;5013494;28;20619;-79
2022/02/05 02:43:02;;;;;;;7.73;3.27;;;;;;;-0.41;91.29;95870.34;4998082;28;20180;-79
2022/02/05 02:45:27;;;;;;;7.17;2.83;;;;;;;-0.40;91.32;95875.38;5030664;28;20289;-80
2022/02/05 02:47:52;;;;;;;7.90;3.17;;;;;;;-0.42;91.02;95878.91;4997573;28;20241;-79
2022/02/05 02:58:21;;;;;;;6.93;2.90;;;;;;;-0.56;92.15;95879.56;5031562;28;20261;-80
2022/02/05 03:00:50;;;;;;;5.90;3.50;;;;;;;-0.55;92.54;95880.38;5031433;28;20197;-79
2022/02/05 03:03:15;;;;;;;5.70;3.10;;;;;;;-0.51;91.99;95879.34;5014689;28;20231;-80
2022/02/05 03:05:41;;;;;;;6.03;2.40;;;;;;;-0.50;91.63;95874.16;5014991;28;20185;-81
2022/02/05 03:08:08;;;;;;;6.33;3.07;;;;;;;-0.49;92.50;95880.91;5030975;28;20219;-80
2022/02/05 03:10:33;;;;;;;7.13;3.03;;;;;;;-0.51;92.23;95882.72;5014806;28;20212;-80
2022/02/05 03:12:59;;;;;;;6.87;3.00;;;;;;;-0.47;92.50;95876.56;5014030;28;20185;-80
2022/02/05 03:15:24;;;;;;;7.50;3.30;;;;;;;-0.43;92.36;95877.25;5014608;28;20706;-79
2022/02/05 03:18:04;;;;;;;5.37;3.07;;;;;;;-0.34;91.92;95882.75;5031005;28;20190;-81
2022/02/05 03:20:30;;;;;;;5.37;2.60;;;;;;;-0.30;91.47;95881.69;5016680;28;20205;-79
2022/02/05 03:22:55;;;;;;;6.50;2.70;;;;;;;-0.28;91.12;95879.88;5030492;28;20553;-80
2022/02/05 03:25:20;;;;;;;3.93;2.63;;;;;;;-0.30;91.04;95893.63;5031073;28;20197;-80
2022/02/05 03:27:46;;;;;;;8.67;2.83;;;;;;;-0.22;91.30;95890.72;5014409;28;20231;-80
2022/02/05 03:30:11;;;;;;;5.90;2.90;;;;;;;-0.22;91.13;95890.72;5030645;28;20201;-80
2022/02/05 03:32:37;;;;;;;5.20;2.70;;;;;;;-0.14;90.93;95891.16;5030415;28;20185;-79
2022/02/05 03:35:02;;;;;;;3.30;2.50;;;;;;;-0.04;90.86;95900.84;5014640;28;20181;-80
2022/02/05 03:37:28;;;;;;;6.80;2.53;;;;;;;-0.02;91.52;95911.00;5034781;28;20531;-80
2022/02/05 03:39:53;;;;;;;6.63;3.03;;;;;;;-0.04;91.22;95910.25;5018977;28;20607;-82
2022/02/05 03:42:20;;;;;;;6.40;3.00;;;;;;;0.05;90.81;95916.63;5014413;28;20197;-81
2022/02/05 03:44:45;;;;;;;4.67;2.10;;;;;;;0.07;91.38;95913.09;5031767;28;20190;-81
2022/02/05 03:47:11;;;;;;;11.93;2.47;;;;;;;0.09;91.01;95921.53;5014510;28;20864;-81
2022/02/05 03:49:36;;;;;;;4.60;2.33;;;;;;;0.03;90.85;95914.16;5030708;28;20210;-80
2022/02/05 03:52:01;;;;;;;4.00;2.90;;;;;;;0.08;91.12;95921.56;5013455;28;20255;-81
2022/02/05 03:54:29;;;;;;;5.83;2.10;;;;;;;0.09;91.08;95915.56;5030337;28;20256;-81
2022/02/05 03:56:54;;;;;;;5.83;2.60;;;;;;;0.09;91.10;95926.63;5030290;28;20170;-81
2022/02/05 03:59:20;;;;;;;5.30;2.27;;;;;;;0.16;91.24;95922.84;5030047;28;20573;-81
2022/02/05 04:01:45;;;;;;;3.53;2.00;;;;;;;0.07;91.80;95933.50;5013040;28;20185;-80
2022/02/05 04:04:10;;;;;;;5.40;2.57;;;;;;;0.14;91.82;95934.06;5013860;28;20200;-81
2022/02/05 04:06:36;;;;;;;4.97;2.37;;;;;;;0.19;91.53;95935.50;5030085;28;20183;-80
2022/02/05 04:09:06;;;;;;;12.43;2.47;;;;;;;0.08;92.16;95934.34;5013518;28;20224;-80
2022/02/05 04:17:02;;;;;;;4.93;2.80;;;;;;;0.21;91.42;95946.44;5033544;28;20224;-79
2022/02/05 04:19:27;;;;;;;6.37;2.30;;;;;;;0.25;91.13;95963.25;5034654;28;20229;-79
2022/02/05 04:21:53;;;;;;;6.53;2.07;;;;;;;0.32;91.46;95958.69;5032886;28;20214;-80
2022/02/05 04:24:18;;;;;;;7.53;2.60;;;;;;;0.33;91.30;95968.00;5016928;28;20196;-80
2022/02/05 04:26:44;;;;;;;8.67;2.60;;;;;;;0.36;91.25;95969.59;5033279;28;20658;-82
2022/02/05 04:29:10;;;;;;;5.03;3.90;;;;;;;0.34;91.72;95971.38;5033026;28;20241;-81
2022/02/05 04:31:36;;;;;;;5.80;2.40;;;;;;;0.31;91.48;95976.66;5015902;28;20208;-79
2022/02/05 04:34:02;;;;;;;4.10;1.87;;;;;;;0.25;91.23;95976.03;5016479;28;20767;-79
2022/02/05 04:36:28;;;;;;;5.43;2.23;;;;;;;0.33;91.44;95982.50;5033024;28;20252;-79
2022/02/05 04:38:54;;;;;;;6.03;2.27;;;;;;;0.32;91.53;95981.69;5015800;28;20600;-80
2022/02/05 04:41:25;;;;;;;7.03;2.70;;;;;;;0.36;90.36;95979.81;5014805;28;20213;-82
2022/02/05 04:44:12;;;;;;;4.93;2.07;;;;;;;0.35;90.63;95983.25;5038540;28;20177;-81
2022/02/05 04:52:38;;;;;;;7.10;2.20;;;;;;;0.44;91.24;95982.81;5034098;28;20183;-82
2022/02/05 05:00:22;;;;;;;5.17;2.93;;;;;;;0.27;90.47;95968.31;5033661;28;20187;-81
2022/02/05 05:13:16;;;;;;;3.57;1.90;;;;;;;0.45;90.82;95980.19;5032479;28;20239;-82
2022/02/05 05:20:54;;;;;;;4.87;2.37;;;;;;;0.47;90.32;96001.38;5033363;28;20289;-81
2022/02/05 05:23:20;;;;;;;6.03;2.80;;;;;;;0.53;90.51;96005.34;5032589;28;20206;-82
2022/02/05 05:25:45;;;;;;;5.97;2.70;;;;;;;0.42;90.88;96007.59;5034670;28;20210;-81
2022/02/05 05:28:10;;;;;;;8.27;4.93;;;;;;;0.56;90.35;96013.69;5032948;28;20577;-81
2022/02/05 05:30:36;;;;;;;10.93;4.57;;;;;;;0.55;90.01;96011.22;5016179;28;20683;-81
2022/02/05 05:33:01;;;;;;;6.10;4.13;;;;;;;0.60;90.24;96009.25;5015783;28;20245;-81
2022/02/05 05:35:26;;;;;;;7.77;3.53;;;;;;;0.59;90.69;96015.28;5016314;28;20175;-81
2022/02/05 05:37:52;;;;;;;4.87;2.60;;;;;;;0.52;91.57;96026.69;5016161;28;20205;-82
2022/02/05 05:40:18;;;;;;;11.53;4.83;;;;;;;0.57;91.06;96017.09;5015559;28;20198;-81
2022/02/05 05:42:49;;;;;;;16.10;6.97;;;;;;;0.64;91.14;96025.28;5015290;28;20174;-81
2022/02/05 05:47:57;;;;;;;8.57;5.07;;;;;;;0.59;90.58;96024.66;5034655;28;20598;-81
2022/02/05 05:53:14;;;;;;;6.73;3.30;;;;;;;0.56;90.61;96023.94;5032778;28;20178;-81
2022/02/05 05:55:44;;;;;;;8.90;3.97;;;;;;;0.61;90.53;96021.13;5016199;28;20192;-80
2022/02/05 05:58:10;;;;;;;9.63;3.47;;;;;;;0.64;90.68;96020.16;5032235;28;20632;-80
2022/02/05 06:00:35;;;;;;;11.50;5.37;;;;;;;0.64;90.66;96015.06;5016988;28;20209;-80
2022/02/05 06:03:02;;;;;;;11.87;6.90;;;;;;;0.67;90.58;96015.72;5034438;28;20228;-82
2022/02/05 06:05:27;;;;;;;9.87;6.33;;;;;;;0.61;90.54;96018.56;5032828;28;20190;-81
2022/02/05 06:07:52;;;;;;;7.00;3.03;;;;;;;0.59;90.28;96010.16;5032397;28;20175;-80
2022/02/05 06:10:18;;;;;;;10.63;4.43;;;;;;;0.63;89.88;96027.00;5032306;28;20210;-80
2022/02/05 06:12:43;;;;;;;7.20;4.00;;;;;;;0.65;90.61;96029.50;5014936;28;20198;-81
2022/02/05 06:15:09;;;;;;;4.70;2.47;;;;;;;0.64;90.15;96035.50;5015608;28;20270;-80
2022/02/05 06:17:35;;;;;;;9.23;3.07;;;;;;;0.57;90.27;96050.31;5031867;28;20267;-80
2022/02/05 06:20:01;;;;;;;4.70;2.77;;;;;;;0.65;89.71;96053.31;5031835;28;20194;-81
2022/02/05 06:22:26;;;;;;;8.23;3.13;;;;;;;0.62;89.83;96050.94;5014906;28;20239;-80
2022/02/05 06:24:51;;;;;;;9.60;2.90;;;;;;;0.53;90.35;96041.13;5031911;28;20224;-80
2022/02/05 06:27:17;;;;;;;6.23;3.23;;;;;;;0.53;90.69;96041.13;5031815;28;20281;-80
2022/02/05 06:29:42;;;;;;;5.67;3.17;;;;;;;0.59;90.42;96043.38;5015353;28;20264;-82
2022/02/05 06:32:08;;;;;;;5.80;3.10;;;;;;;0.58;90.50;96051.97;5014584;28;20179;-80
2022/02/05 06:34:33;;;;;;;5.60;2.77;;;;;;;0.58;90.23;96051.97;5014425;28;20271;-80
2022/02/05 06:36:58;;;;;;;4.20;2.90;;;;;;;0.60;90.33;96055.25;5015206;28;20595;-80
2022/02/05 06:39:24;;;;;;;8.50;2.93;;;;;;;0.67;90.71;96058.34;5031553;28;20774;-80
2022/02/05 06:41:50;;;;;;;8.97;2.97;;;;;;;0.61;90.36;96056.09;5029841;28;20182;-80
2022/02/05 06:44:15;;;;;;;12.33;3.73;;;;;;;0.56;90.68;96061.44;5015028;28;20562;-80
2022/02/05 06:46:42;;;;;;;8.40;3.07;;;;;;;0.53;90.69;96061.56;5031282;28;20563;-81
2022/02/05 06:49:07;;;;;;;7.30;2.83;;;;;;;0.58;91.03;96064.75;5014705;28;20295;-80
2022/02/05 06:51:33;;;;;;;4.80;2.57;;;;;;;0.56;91.31;96072.47;5030406;28;20212;-79
2022/02/05 06:53:58;;;;;;;9.10;2.90;;;;;;;0.50;91.27;96077.06;5014657;28;20585;-80
2022/02/05 06:56:24;;;;;;;5.17;2.50;;;;;;;0.55;91.21;96077.69;5014407;28;20258;-80
2022/02/05 06:58:49;;;;;;;8.33;2.50;;;;;;;0.64;90.99;96081.50;5014759;28;20210;-80
2022/02/05 07:01:14;;;;;;;4.37;2.40;;;;;;;0.61;91.24;96085.03;5013603;28;20589;-80
2022/02/05 07:03:40;;;;;;;6.77;2.40;;;;;;;0.74;90.37;96088.66;5030797;28;20643;-80
2022/02/05 07:06:05;;;;;;;6.47;2.90;;;;;;;0.77;91.05;96091.06;5014119;28;20193;-81
2022/02/05 07:08:31;;;;;;;7.20;2.93;;;;;;;0.64;90.86;96097.69;5013902;28;20201;-81
2022/02/05 07:10:57;;;;;;;5.87;2.60;;;;;;;0.71;90.87;96099.03;5030365;28;20197;-81
2022/02/05 07:13:22;;;;;;;6.17;2.47;;;;;;;0.72;90.94;96095.59;5011698;28;20179;-81
2022/02/05 07:20:54;;;;;;;5.47;2.50;;;;;;;0.76;90.64;96106.47;5030281;28;20206;-82
2022/02/05 07:31:17;;;;;;;9.23;3.10;;;;;;;0.85;89.39;96113.69;5030456;28;20264;-81
2022/02/05 07:33:45;;;;;;;6.80;2.40;;;;;;;0.88;89.74;96118.66;5014303;28;20179;-82
2022/02/05 07:36:13;;;;;;;6.13;2.63;;;;;;;0.81;89.99;96128.38;5001591;28;20189;-81
2022/02/05 07:38:39;;;;;;;9.00;2.50;;;;;;;0.82;89.85;96117.22;5019881;28;20201;-81
2022/02/05 07:41:04;;;;;;;7.10;2.27;;;;;;;0.95;89.96;96116.63;5012889;28;20208;-81
2022/02/05 07:43:34;;;;;;;8.13;3.10;;;;;;;0.87;89.81;96113.63;5013139;28;20546;-81
2022/02/05 07:46:00;;;;;;;6.93;2.30;;;;;;;0.87;90.09;96103.38;5015051;28;20202;-81
2022/02/05 07:48:26;;;;;;;7.03;2.70;;;;;;;0.82;90.36;96101.06;5028998;28;20613;-81
2022/02/05 07:50:51;;;;;;;8.30;2.80;;;;;;;0.89;89.87;96109.28;5010296;28;20225;-81
2022/02/05 07:53:16;;;;;;;10.27;2.57;;;;;;;0.97;89.41;96115.66;5032680;28;20210;-82
2022/02/05 07:55:42;;;;;;;4.77;2.40;;;;;;;1.02;89.72;96125.66;5022963;28;20532;-83
2022/02/05 07:58:07;;;;;;;6.83;2.70;;;;;;;1.05;88.60;96128.88;5025795;28;20182;-82
2022/02/05 08:00:32;;;;;;;5.87;2.47;;;;;;;1.26;88.43;96127.00;5021466;28;20257;-81
2022/02/05 08:02:58;;;;;;;7.03;2.37;;;;;;;1.19;88.08;96120.53;5016394;28;20214;-80
2022/02/05 08:05:24;;;;;;;6.00;2.13;;;;;;;1.17;88.01;96116.41;5035037;28;20182;-81
2022/02/05 08:07:50;;;;;;;5.20;2.53;;;;;;;1.29;88.08;96126.00;5033249;28;20182;-82
2022/02/05 08:10:17;;;;;;;8.30;2.27;;;;;;;1.22;88.33;96130.59;5016910;28;20197;-83
2022/02/05 08:12:49;;;;;;;8.93;2.27;;;;;;;1.10;87.81;96133.78;5032371;28;20554;-83
2022/02/05 08:15:17;;;;;;;6.83;2.37;;;;;;;1.16;88.61;96137.78;5018553;28;20287;-81
2022/02/05 08:17:43;;;;;;;9.23;2.20;;;;;;;1.22;88.04;96137.44;5017593;28;20217;-81
2022/02/05 08:20:09;;;;;;;10.90;2.73;;;;;;;1.31;87.61;96144.66;5032834;28;20229;-82
2022/02/05 08:22:34;;;;;;;3.90;2.07;;;;;;;1.40;87.63;96142.47;5032313;28;20186;-81
2022/02/05 08:25:00;;;;;;;5.80;2.43;;;;;;;1.51;87.23;96147.06;5033398;28;20190;-81
2022/02/05 08:27:26;;;;;;;5.17;2.20;;;;;;;1.50;86.38;96147.94;5015815;28;20182;-80
2022/02/05 08:29:57;;;;;;;5.87;2.00;;;;;;;1.57;86.33;96156.16;5027511;28;20209;-80
2022/02/05 08:32:25;;;;;;;12.20;2.67;;;;;;;1.53;86.25;96149.53;5031573;28;20182;-80
2022/02/05 08:34:51;;;;;;;6.13;2.37;;;;;;;1.69;85.32;96147.88;5033650;28;20589;-80
2022/02/05 08:37:16;;;;;;;8.00;2.20;;;;;;;1.67;85.36;96152.22;5017118;28;20185;-81
2022/02/05 08:39:43;;;;;;;8.37;2.30;;;;;;;1.70;85.43;96157.19;5016881;28;20194;-81
2022/02/05 08:42:08;;;;;;;9.97;2.33;;;;;;;1.77;84.57;96158.53;5016268;28;20174;-80
2022/02/05 08:44:33;;;;;;;6.83;2.23;;;;;;;1.91;84.69;96161.19;5033367;28;20228;-80
2022/02/05 08:47:00;;;;;;;9.33;2.10;;;;;;;1.97;83.06;96158.31;5016802;28;20178;-79
2022/02/05 08:49:28;;;;;;;14.33;2.40;;;;;;;1.96;82.27;96163.53;5032978;28;20210;-81
2022/02/05 08:51:54;;;;;;;7.37;2.20;;;;;;;2.01;82.92;96166.66;5013388;28;20186;-79
2022/02/05 08:54:19;;;;;;;6.93;2.50;;;;;;;1.99;83.06;96168.47;5013502;28;20172;-82
2022/02/05 08:56:45;;;;;;;7.00;2.50;;;;;;;1.93;81.63;96161.09;4996544;28;20231;-80
2022/02/05 08:59:10;;;;;;;7.20;1.87;;;;;;;1.91;82.36;96163.75;5014526;28;20641;-82
2022/02/05 09:01:46;;;;;;;8.10;2.23;;;;;;;1.94;82.42;96170.44;5009689;28;20187;-80
2022/02/05 09:06:47;;;;;;;8.43;2.10;;;;;;;2.02;82.00;96167.47;5033185;28;20205;-81
2022/02/05 09:11:54;;;;;;;4.77;2.00;;;;;;;1.95;81.78;96162.69;5031660;28;20182;-80
2022/02/05 09:16:53;;;;;;;3.10;2.20;;;;;;;2.08;81.24;96157.75;5033128;28;20181;-80
2022/02/05 09:19:18;;;;;;;4.83;1.97;;;;;;;2.16;80.46;96157.34;5011756;28;20178;-80
2022/02/05 09:21:44;;;;;;;8.53;2.10;;;;;;;2.18;79.86;96161.47;5027782;28;20618;-80
2022/02/05 09:24:09;;;;;;;8.70;2.30;;;;;;;2.09;79.55;96163.69;5005601;28;20275;-79
2022/02/05 09:26:37;;;;;;;7.30;2.50;;;;;;;2.24;79.68;96157.75;5014778;28;20224;-80
2022/02/05 09:29:11;;;;;;;6.00;2.37;;;;;;;2.39;80.25;96163.81;5031440;28;20202;-80
2022/02/05 09:31:36;;;;;;;4.83;2.00;;;;;;;2.40;79.22;96173.97;5031061;28;20179;-80
2022/02/05 09:34:04;;;;;;;7.00;2.20;;;;;;;2.47;79.38;96167.63;5014868;28;20536;-79
2022/02/05 09:36:30;;;;;;;7.07;1.70;;;;;;;2.53;78.32;96167.25;5031197;28;20627;-80
2022/02/05 09:38:56;;;;;;;6.83;2.00;;;;;;;2.56;77.92;96163.69;5014769;28;20174;-80
2022/02/05 09:41:22;;;;;;;7.37;1.90;;;;;;;2.63;78.20;96165.03;5031027;28;20273;-79
2022/02/05 09:43:48;;;;;;;5.93;1.77;;;;;;;2.49;77.53;96155.53;5015171;28;20594;-80
2022/02/05 09:46:15;;;;;;;6.23;1.60;;;;;;;2.58;77.09;96161.91;5014196;28;20258;-80
2022/02/05 09:48:40;;;;;;;6.50;2.33;;;;;;;2.64;76.42;96170.97;5030670;28;20199;-79
2022/02/05 09:51:15;;;;;;;3.03;1.70;;;;;;;2.68;75.96;96169.91;5011463;28;20221;-80
2022/02/05 09:53:44;;;;;;;12.77;2.30;;;;;;;2.79;75.93;96193.22;5033600;28;20178;-79
2022/02/05 09:56:10;;;;;;;3.10;1.33;;;;;;;2.69;74.64;96184.38;5016773;28;20185;-80
2022/02/05 09:58:35;;;;;;;5.30;1.50;;;;;;;2.88;74.55;96182.44;5031983;28;20175;-80
2022/02/05 10:01:09;;;;;;;10.27;2.87;;;;;;;2.96;74.45;96185.41;5030274;28;20195;-80
2022/02/05 10:03:35;;;;;;;6.07;1.70;;;;;;;2.97;74.26;96179.38;5015815;28;20173;-79
2022/02/05 10:06:05;;;;;;;5.30;1.53;;;;;;;3.03;73.71;96198.75;5032085;28;20640;-80
2022/02/05 10:08:30;;;;;;;5.57;1.70;;;;;;;3.03;73.58;96199.56;5031171;28;20683;-80
2022/02/05 10:10:59;;;;;;;5.47;1.53;;;;;;;2.99;73.28;96198.06;5032363;28;20206;-79
2022/02/05 10:13:28;;;;;;;5.53;1.50;;;;;;;3.07;73.96;96200.22;5031798;28;20257;-80
2022/02/05 10:15:54;;;;;;;5.97;1.70;;;;;;;3.00;72.87;96199.72;5000945;28;20195;-79
2022/02/05 10:18:38;;;;;;;4.73;1.50;;;;;;;3.12;73.67;96201.63;5013118;28;20178;-80
2022/02/05 10:21:26;;;;;;;8.40;4.07;;;;;;;3.22;72.79;96204.47;5020590;28;20828;-79
2022/02/05 10:24:14;;;;;;;30.73;16.50;;;;;;;3.28;72.51;96204.16;5011658;28;20190;-81
2022/02/05 10:26:43;;;;;;;9.67;4.30;;;;;;;3.36;72.49;96207.09;5014187;28;20609;-79
2022/02/05 10:29:14;;;;;;;6.80;2.00;;;;;;;3.48;70.99;96205.56;5020537;28;20281;-80
2022/02/05 10:32:16;;;;;;;4.07;1.83;;;;;;;3.45;70.94;96205.75;5014305;28;20247;-81
2022/02/05 10:34:59;;;;;;;4.60;2.77;;;;;;;3.45;70.90;96208.31;5016403;28;20178;-81
2022/02/05 10:37:29;;;;;;;7.60;3.60;;;;;;;3.56;70.23;96212.84;5011903;28;20179;-80
2022/02/05 10:45:11;;;;;;;14.80;7.97;;;;;;;3.37;68.45;96218.19;5032182;28;20225;-81
2022/02/05 10:47:47;;;;;;;3.00;1.60;;;;;;;3.55;68.10;96217.16;5011255;28;20191;-80
2022/02/05 10:50:17;;;;;;;13.33;6.67;;;;;;;3.46;67.80;96207.41;5011126;28;20254;-80
2022/02/05 10:52:48;;;;;;;6.13;1.60;;;;;;;3.41;66.79;96212.78;5010595;28;20190;-79
2022/02/05 10:58:11;;;;;;;7.13;1.33;;;;;;;3.35;67.44;96237.97;5011547;28;20180;-80
2022/02/05 11:05:54;;;;;;;10.70;3.40;;;;;;;3.53;67.25;96229.22;5011125;28;20776;-80
2022/02/05 11:08:21;;;;;;;7.07;2.77;;;;;;;3.58;67.07;96229.81;5023363;28;20199;-78
2022/02/05 11:18:57;;;;;;;6.40;1.30;;;;;;;3.50;66.86;96223.44;5025486;28;20198;-79
2022/02/05 11:21:30;;;;;;;4.23;1.53;;;;;;;3.58;66.63;96222.09;5029376;28;20275;-80
2022/02/05 11:23:59;;;;;;;5.60;1.40;;;;;;;3.63;66.40;96222.66;5010529;28;20186;-79
2022/02/05 11:26:24;;;;;;;3.83;1.40;;;;;;;3.54;64.37;96214.66;5027295;28;20668;-79
2022/02/05 11:28:52;;;;;;;5.40;1.13;;;;;;;3.70;64.13;96223.94;5026978;28;20295;-80
2022/02/05 11:31:29;;;;;;;6.47;1.67;;;;;;;3.80;65.49;96216.56;5009804;28;20195;-79
2022/02/05 11:34:12;;;;;;;6.30;1.33;;;;;;;3.65;64.11;96209.72;5026701;28;20178;-81
2022/02/05 11:36:43;;;;;;;23.30;3.47;;;;;;;3.89;64.35;96212.63;5028744;28;20178;-79
2022/02/05 11:39:15;;;;;;;10.93;2.37;;;;;;;3.90;63.73;96214.25;5014047;28;20525;-80
2022/02/05 11:41:41;;;;;;;4.47;1.10;;;;;;;3.93;63.49;96211.50;5013122;28;20217;-80
2022/02/05 11:44:23;;;;;;;3.07;1.10;;;;;;;4.12;63.58;96211.22;5030113;28;20179;-81
2022/02/05 11:47:20;;;;;;;6.33;1.30;;;;;;;3.81;63.83;96204.53;5029779;28;20241;-80
2022/02/05 11:49:51;;;;;;;2.37;1.10;;;;;;;3.95;63.17;96199.38;5007856;28;20257;-81
2022/02/05 11:52:35;;;;;;;5.83;1.50;;;;;;;3.93;63.82;96196.09;4979063;28;20657;-80
2022/02/05 11:55:08;;;;;;;4.50;1.10;;;;;;;3.94;63.15;96208.00;4989423;28;20181;-79
2022/02/05 11:57:42;;;;;;;6.77;1.50;;;;;;;4.06;62.04;96202.13;4973458;28;20196;-79
2022/02/05 12:00:23;;;;;;;6.23;1.40;;;;;;;4.15;63.15;96209.31;4989531;28;20212;-79
2022/02/05 12:03:01;;;;;;;6.13;2.20;;;;;;;4.21;63.44;96208.09;4973334;28;20240;-79
2022/02/05 12:05:35;;;;;;;4.17;1.50;;;;;;;4.22;62.97;96213.16;4972542;28;20190;-79
2022/02/05 12:08:03;;;;;;;6.93;1.40;;;;;;;4.25;63.38;96217.31;4972864;28;20172;-80
2022/02/05 12:10:31;;;;;;;4.90;1.77;;;;;;;4.39;62.90;96208.72;4982938;28;20324;-79
2022/02/05 12:13:20;;;;;;;7.90;0.90;;;;;;;4.47;61.30;96211.66;5003919;28;20262;-80
2022/02/05 12:15:55;;;;;;;4.83;1.23;;;;;;;4.50;61.99;96208.88;4992001;28;20184;-79
2022/02/05 12:18:25;;;;;;;8.10;3.67;;;;;;;4.50;61.01;96198.59;4986716;28;20195;-79
2022/02/05 12:21:04;;;;;;;8.17;1.83;;;;;;;4.40;61.48;96206.06;4982504;28;20217;-78
2022/02/05 12:26:32;;;;;;;3.63;1.37;;;;;;;4.43;62.66;96205.06;5026522;28;20576;-83
2022/02/05 12:29:02;;;;;;;6.00;1.33;;;;;;;4.26;61.54;96206.91;5029399;28;20195;-81
2022/02/05 12:31:34;;;;;;;4.37;1.10;;;;;;;4.08;62.11;96200.31;5011063;28;20192;-81
2022/02/05 12:34:08;;;;;;;3.83;1.13;;;;;;;4.19;62.37;96197.09;5031444;28;20206;-79
2022/02/05 12:36:46;;;;;;;5.50;2.53;;;;;;;4.25;62.21;96200.13;5031630;28;20557;-81
2022/02/05 12:39:20;;;;;;;5.37;1.60;;;;;;;4.22;62.00;96210.56;5030563;28;20178;-79
2022/02/05 12:42:09;;;;;;;2.40;1.00;;;;;;;4.47;62.17;96209.09;5004621;28;20278;-81
2022/02/05 12:44:38;;;;;;;6.83;3.40;;;;;;;4.63;61.30;96202.09;5028379;28;20187;-84
2022/02/05 12:47:12;;;;;;;5.30;2.47;;;;;;;4.70;61.20;96207.69;5015874;28;20179;-80
2022/02/05 12:49:46;;;;;;;5.17;1.27;;;;;;;4.69;60.95;96206.03;5031706;28;20654;-83
2022/02/05 12:52:12;;;;;;;7.30;1.40;;;;;;;4.66;60.19;96216.50;5014901;28;20215;-80
2022/02/05 12:54:45;;;;;;;3.67;2.37;;;;;;;4.69;61.01;96211.19;5031605;28;20563;-80
2022/02/05 12:57:15;;;;;;;4.20;1.33;;;;;;;4.69;60.51;96200.88;5028734;28;20195;-79
2022/02/05 12:59:40;;;;;;;4.73;1.20;;;;;;;4.85;60.92;96209.28;5010821;28;20225;-79
2022/02/05 13:02:07;;;;;;;4.00;1.20;;;;;;;4.51;60.73;96202.84;4994444;28;20636;-78
2022/02/05 13:04:37;;;;;;;3.20;1.10;;;;;;;4.48;60.60;96198.69;5012773;28;20187;-81
2022/02/05 13:07:11;;;;;;;5.50;1.43;;;;;;;4.54;61.25;96200.09;5012310;28;20285;-82
2022/02/05 13:09:54;;;;;;;4.60;1.27;;;;;;;4.62;60.18;96207.31;5031525;28;20210;-81
2022/02/05 13:12:31;;;;;;;3.37;1.03;;;;;;;4.58;60.71;96193.81;5031773;28;20188;-80
2022/02/05 13:15:02;;;;;;;4.43;2.00;;;;;;;4.42;61.03;96200.84;5015500;28;20267;-82
2022/02/05 13:18:08;;;;;;;2.80;1.37;;;;;;;4.19;61.73;96181.66;5031755;28;20182;-81
2022/02/05 13:28:50;;;;;;;5.73;1.30;;;;;;;4.05;61.78;96172.22;5029304;28;20239;-82
2022/02/05 13:34:08;;;;;;;6.67;1.90;;;;;;;4.01;61.79;96172.50;5030814;28;20210;-80
2022/02/05 13:36:41;;;;;;;2.70;1.23;;;;;;;4.02;61.72;96169.00;5008465;28;20177;-81
2022/02/05 13:41:46;;;;;;;4.63;1.50;;;;;;;4.12;61.88;96160.66;5013472;28;20179;-81
2022/02/05 13:44:17;;;;;;;3.60;1.20;;;;;;;4.33;61.77;96167.94;4995108;28;20178;-81
2022/02/05 13:46:42;;;;;;;4.33;1.53;;;;;;;4.23;61.68;96165.94;5011813;28;20200;-81
2022/02/05 13:49:18;;;;;;;6.37;1.70;;;;;;;4.37;62.25;96169.44;4995071;28;20286;-80
2022/02/05 13:51:44;;;;;;;4.17;1.50;;;;;;;4.21;62.36;96159.25;5011005;28;20233;-80
2022/02/05 13:54:10;;;;;;;2.90;1.17;;;;;;;4.18;61.23;96150.00;5011295;28;20217;-80
2022/02/05 13:56:36;;;;;;;6.10;1.60;;;;;;;4.34;60.98;96156.78;4995220;28;20557;-80
2022/02/05 13:59:02;;;;;;;7.13;1.70;;;;;;;4.36;61.83;96152.34;4995098;28;20175;-81
2022/02/05 14:01:33;;;;;;;5.20;1.60;;;;;;;4.34;61.83;96156.78;4994434;28;20532;-81
2022/02/05 14:04:23;;;;;;;0.77;0.77;;;;;;;4.42;60.46;96157.97;4994790;28;20198;-80
2022/02/05 14:06:59;;;;;;;4.27;2.00;;;;;;;4.44;61.42;96155.28;4995614;28;20199;-81
2022/02/05 14:09:35;;;;;;;5.10;1.77;;;;;;;4.21;60.57;96157.50;5011092;28;20301;-82
2022/02/05 14:12:17;;;;;;;3.50;1.33;;;;;;;4.28;62.21;96155.41;5010959;28;20177;-81
2022/02/05 14:14:43;;;;;;;2.70;1.03;;;;;;;4.23;59.87;96153.09;5010747;28;20192;-82
2022/02/05 14:17:18;;;;;;;4.93;1.60;;;;;;;4.30;60.79;96152.72;5014500;28;20237;-82
2022/02/05 14:19:45;;;;;;;6.63;1.57;;;;;;;4.32;60.37;96161.16;5014043;28;20205;-81
2022/02/05 14:22:26;;;;;;;4.00;2.17;;;;;;;4.29;59.30;96156.22;5013797;28;20714;-81
2022/02/05 14:25:13;;;;;;;2.57;1.00;;;;;;;4.22;59.86;96155.75;5035307;28;20575;-82
2022/02/05 14:28:11;;;;;;;4.00;1.10;;;;;;;4.23;60.79;96163.38;5028999;28;20669;-84
2022/02/05 14:30:40;;;;;;;3.40;1.80;;;;;;;4.14;60.08;96157.97;5044328;28;20195;-82
2022/02/05 14:33:08;;;;;;;4.17;1.50;;;;;;;4.13;60.15;96157.16;5031990;28;20220;-82
2022/02/05 14:41:01;;;;;;;3.37;1.60;;;;;;;3.85;61.13;96154.59;5032779;28;20694;-82
2022/02/05 14:43:26;;;;;;;3.90;1.10;;;;;;;3.82;60.89;96154.78;5015285;28;20190;-83
2022/02/05 14:45:53;;;;;;;6.33;1.40;;;;;;;3.92;60.97;96159.28;5015765;28;20197;-82
2022/02/05 14:48:19;;;;;;;4.73;1.10;;;;;;;4.00;61.73;96158.84;5015373;28;20198;-82
2022/02/05 14:50:44;;;;;;;2.80;1.40;;;;;;;4.02;61.64;96164.69;5033201;28;20205;-82
2022/02/05 14:53:09;;;;;;;6.80;1.30;;;;;;;3.96;61.59;96152.22;5031293;28;20242;-80
2022/02/05 14:55:35;;;;;;;2.13;1.07;;;;;;;4.02;61.50;96148.44;5032887;28;20179;-81